createdAt,value
2018-09-08T00:00:23.824Z,20.85
2018-09-08T00:01:04.277Z,20.89
2018-09-08T00:01:44.799Z,20.8
2018-09-08T00:02:25.306Z,20.7
2018-09-08T00:03:05.789Z,20.79
2018-09-08T00:03:46.250Z,20.84
2018-09-08T00:04:26.714Z,20.85
2018-09-08T00:05:07.273Z,20.84
2018-09-08T00:05:47.784Z,20.69
2018-09-08T00:06:28.249Z,20.55
2018-09-08T00:07:08.794Z,20.52
2018-09-08T00:07:49.266Z,20.58
2018-09-08T00:08:29.753Z,20.48
2018-09-08T00:09:10.286Z,20.59
2018-09-08T00:09:50.779Z,20.58
2018-09-08T00:10:31.230Z,20.64
2018-09-08T00:11:11.720Z,20.62
2018-09-08T00:11:52.227Z,20.55
2018-09-08T00:12:32.790Z,20.57
2018-09-08T00:13:13.351Z,20.61
2018-09-08T00:13:53.793Z,20.64
2018-09-08T00:14:34.340Z,20.57
2018-09-08T00:15:14.810Z,20.69
2018-09-08T00:15:55.386Z,20.66
2018-09-08T00:16:35.875Z,20.67
2018-09-08T00:17:16.374Z,20.55
2018-09-08T00:17:56.936Z,20.58
2018-09-08T00:18:37.387Z,20.73
2018-09-08T00:19:17.890Z,20.77
2018-09-08T00:19:58.381Z,20.72
2018-09-08T00:20:38.885Z,20.7
2018-09-08T00:21:19.345Z,20.61
2018-09-08T00:21:59.872Z,20.54
2018-09-08T00:22:40.394Z,20.61
2018-09-08T00:23:20.926Z,20.57
2018-09-08T00:24:01.529Z,20.57
2018-09-08T00:24:42.084Z,20.54
2018-09-08T00:25:22.578Z,20.52
2018-09-08T00:26:03.098Z,20.51
2018-09-08T00:28:16.398Z,20.55
2018-09-08T00:28:56.924Z,20.52
2018-09-08T00:29:37.409Z,20.42
2018-09-08T00:30:17.983Z,20.38
2018-09-08T00:30:58.452Z,20.47
2018-09-08T00:31:38.971Z,20.43
2018-09-08T00:32:19.505Z,20.41
2018-09-08T00:33:00.013Z,20.35
2018-09-08T00:33:40.542Z,20.41
2018-09-08T00:35:18.725Z,20.43
2018-09-08T00:35:59.189Z,20.39
2018-09-08T00:36:39.748Z,20.26
2018-09-08T00:37:20.269Z,20.14
2018-09-08T00:38:00.756Z,20.29
2018-09-08T00:38:41.297Z,20.17
2018-09-08T00:39:21.836Z,20.31
2018-09-08T00:40:02.384Z,20.28
2018-09-08T00:40:42.866Z,20.28
2018-09-08T00:41:23.759Z,20.29
2018-09-08T00:42:04.230Z,20.39
2018-09-08T00:42:44.724Z,20.33
2018-09-08T00:43:25.243Z,20.31
2018-09-08T00:45:14.040Z,19.96
2018-09-08T00:45:54.674Z,20.08
2018-09-08T00:46:35.063Z,19.96
2018-09-08T00:47:15.615Z,20.13
2018-09-08T00:47:56.131Z,20.21
2018-09-08T00:48:36.659Z,20.02
2018-09-08T00:49:17.177Z,20.29
2018-09-08T00:49:57.708Z,20.24
2018-09-08T00:50:38.222Z,20.28
2018-09-08T00:51:19.470Z,20.2
2018-09-08T00:52:00.005Z,20.17
2018-09-08T00:52:40.477Z,20.08
2018-09-08T00:53:20.992Z,20.03
2018-09-08T00:55:19.156Z,20.05
2018-09-08T00:55:59.629Z,20.02
2018-09-08T00:56:40.144Z,20.11
2018-09-08T00:58:53.419Z,20.02
2018-09-08T00:59:33.932Z,20.14
2018-09-08T01:00:14.481Z,20.14
2018-09-08T01:00:54.976Z,20.16
2018-09-08T01:01:35.487Z,20.11
2018-09-08T01:02:16.031Z,20.16
2018-09-08T01:02:56.501Z,20.21
2018-09-08T01:03:37.053Z,20.2
2018-09-08T01:04:17.531Z,20.14
2018-09-08T01:04:58.048Z,20.1
2018-09-08T01:05:38.572Z,20.11
2018-09-08T01:06:19.136Z,20.05
2018-09-08T01:06:59.602Z,19.99
2018-09-08T01:07:40.105Z,19.96
2018-09-08T01:08:20.600Z,20.11
2018-09-08T01:09:01.082Z,20.02
2018-09-08T01:09:41.581Z,19.98
2018-09-08T01:10:22.060Z,19.99
2018-09-08T01:11:02.522Z,20.08
2018-09-08T01:11:43.205Z,20.05
2018-09-08T01:12:23.670Z,20.1
2018-09-08T01:13:04.180Z,20.14
2018-09-08T01:13:44.702Z,20.1
2018-09-08T01:14:25.228Z,20.05
2018-09-08T01:15:05.681Z,19.94
2018-09-08T01:15:46.180Z,19.96
2018-09-08T01:16:26.687Z,19.92
2018-09-08T01:17:07.176Z,19.95
2018-09-08T01:17:47.679Z,20.01
2018-09-08T01:18:28.223Z,20.06
2018-09-08T01:19:08.683Z,19.91
2018-09-08T01:19:49.232Z,19.92
2018-09-08T01:20:29.702Z,19.92
2018-09-08T01:21:10.172Z,19.95
2018-09-08T01:21:50.686Z,19.87
2018-09-08T01:22:31.190Z,19.95
2018-09-08T01:23:11.677Z,19.96
2018-09-08T01:23:52.160Z,19.98
2018-09-08T01:24:32.686Z,19.98
2018-09-08T01:25:13.159Z,19.98
2018-09-08T01:25:53.674Z,19.91
2018-09-08T01:26:34.181Z,19.95
2018-09-08T01:27:14.675Z,19.91
2018-09-08T01:27:55.181Z,19.87
2018-09-08T01:28:35.736Z,19.92
2018-09-08T01:29:16.281Z,19.99
2018-09-08T01:29:56.819Z,19.99
2018-09-08T01:30:37.388Z,19.92
2018-09-08T01:31:17.879Z,19.95
2018-09-08T01:31:58.386Z,19.86
2018-09-08T01:32:38.942Z,19.84
2018-09-08T01:33:19.480Z,19.78
2018-09-08T01:33:59.931Z,19.71
2018-09-08T01:34:40.440Z,19.66
2018-09-08T01:35:20.894Z,19.71
2018-09-08T01:36:01.414Z,19.77
2018-09-08T01:36:41.899Z,19.71
2018-09-08T01:37:22.438Z,19.62
2018-09-08T01:38:02.897Z,19.36
2018-09-08T01:38:43.442Z,19.25
2018-09-08T01:39:23.903Z,19.26
2018-09-08T01:40:04.413Z,19.25
2018-09-08T01:40:44.900Z,19.14
2018-09-08T01:41:25.430Z,19.1
2018-09-08T01:42:05.889Z,19.11
2018-09-08T01:42:46.410Z,19.11
2018-09-08T01:43:26.904Z,19.04
2018-09-08T01:44:07.459Z,19.06
2018-09-08T01:44:47.914Z,19.11
2018-09-08T01:45:28.415Z,19.08
2018-09-08T01:46:08.887Z,19
2018-09-08T01:46:49.444Z,19.02
2018-09-08T01:47:29.971Z,19.04
2018-09-08T01:48:10.444Z,19.18
2018-09-08T01:48:50.983Z,19.16
2018-09-08T01:49:31.464Z,19.21
2018-09-08T01:50:11.993Z,19.23
2018-09-08T01:50:52.516Z,19.28
2018-09-08T01:51:33.020Z,19.22
2018-09-08T01:52:13.514Z,19.25
2018-09-08T01:52:54.015Z,19.28
2018-09-08T01:53:34.509Z,19.32
2018-09-08T01:54:15.010Z,19.21
2018-09-08T01:54:55.517Z,19.36
2018-09-08T01:55:36.073Z,19.31
2018-09-08T01:56:16.537Z,19.36
2018-09-08T01:56:57.014Z,19.33
2018-09-08T01:57:37.510Z,19.44
2018-09-08T01:58:18.028Z,19.5
2018-09-08T01:58:58.518Z,19.48
2018-09-08T01:59:39.032Z,19.43
2018-09-08T02:00:19.486Z,19.44
2018-09-08T02:00:59.968Z,19.43
2018-09-08T02:01:40.461Z,19.5
2018-09-08T02:02:21.003Z,19.39
2018-09-08T02:03:01.426Z,19.5
2018-09-08T02:03:42.007Z,19.41
2018-09-08T02:04:22.459Z,19.39
2018-09-08T02:05:03.006Z,19.39
2018-09-08T02:05:43.468Z,19.4
2018-09-08T02:06:24.003Z,19.33
2018-09-08T02:07:04.458Z,19.25
2018-09-08T02:07:44.961Z,19.41
2018-09-08T02:08:25.446Z,19.33
2018-09-08T02:09:05.924Z,19.39
2018-09-08T02:09:46.435Z,19.4
2018-09-08T02:10:26.892Z,19.46
2018-09-08T02:11:07.442Z,19.46
2018-09-08T02:11:47.929Z,19.44
2018-09-08T02:12:28.393Z,19.37
2018-09-08T02:13:08.864Z,19.48
2018-09-08T02:13:49.356Z,19.41
2018-09-08T02:14:29.844Z,19.37
2018-09-08T02:15:10.342Z,19.43
2018-09-08T02:15:50.784Z,19.44
2018-09-08T02:16:31.304Z,19.47
2018-09-08T02:17:11.779Z,19.4
2018-09-08T02:17:52.292Z,19.44
2018-09-08T02:18:32.809Z,19.47
2018-09-08T02:19:13.239Z,19.44
2018-09-08T02:19:53.764Z,19.5
2018-09-08T02:20:34.252Z,19.41
2018-09-08T02:21:14.692Z,19.29
2018-09-08T02:21:55.203Z,19.22
2018-09-08T02:22:35.774Z,19.32
2018-09-08T02:23:16.184Z,19.36
2018-09-08T02:23:56.719Z,19.41
2018-09-08T02:24:37.174Z,19.37
2018-09-08T02:25:17.752Z,19.36
2018-09-08T02:25:58.223Z,19.39
2018-09-08T02:26:38.723Z,19.46
2018-09-08T02:27:19.243Z,19.39
2018-09-08T02:27:59.732Z,19.48
2018-09-08T02:28:40.862Z,19.32
2018-09-08T02:29:21.361Z,19.28
2018-09-08T02:30:01.814Z,19.33
2018-09-08T02:30:42.397Z,19.41
2018-09-08T02:31:22.827Z,19.29
2018-09-08T02:32:03.363Z,19.25
2018-09-08T02:32:43.805Z,19.08
2018-09-08T02:33:24.320Z,19.16
2018-09-08T02:34:04.830Z,19.13
2018-09-08T02:34:45.378Z,19.14
2018-09-08T02:35:25.945Z,19.13
2018-09-08T02:36:06.398Z,19.19
2018-09-08T02:36:46.900Z,19.26
2018-09-08T02:37:27.390Z,19.23
2018-09-08T02:38:07.857Z,19.22
2018-09-08T02:38:48.376Z,19.26
2018-09-08T02:39:28.932Z,19.26
2018-09-08T02:40:09.375Z,19.19
2018-09-08T02:40:49.864Z,19.26
2018-09-08T02:41:30.351Z,19.32
2018-09-08T02:42:10.847Z,19.22
2018-09-08T02:42:51.326Z,19.14
2018-09-08T02:43:31.814Z,19.16
2018-09-08T02:44:12.307Z,19.1
2018-09-08T02:44:52.771Z,19.1
2018-09-08T02:45:33.284Z,19.1
2018-09-08T02:46:13.764Z,19.18
2018-09-08T02:46:54.263Z,19.14
2018-09-08T02:47:34.730Z,19.04
2018-09-08T02:48:15.279Z,19.04
2018-09-08T02:48:55.733Z,19.07
2018-09-08T02:49:36.269Z,19.02
2018-09-08T02:50:16.753Z,19.07
2018-09-08T02:50:57.250Z,19.18
2018-09-08T02:51:37.703Z,19.11
2018-09-08T02:52:18.155Z,19.11
2018-09-08T02:52:58.635Z,19.19
2018-09-08T02:53:39.155Z,19.13
2018-09-08T02:54:19.628Z,19.11
2018-09-08T02:55:00.118Z,19.18
2018-09-08T02:55:40.683Z,19.04
2018-09-08T02:56:21.136Z,19.07
2018-09-08T02:57:01.658Z,19.16
2018-09-08T02:57:42.105Z,19.16
2018-09-08T02:58:22.549Z,19.16
2018-09-08T02:59:03.084Z,19.18
2018-09-08T02:59:43.639Z,19.13
2018-09-08T03:00:24.152Z,19.07
2018-09-08T03:01:04.923Z,19.13
2018-09-08T03:01:45.515Z,19.13
2018-09-08T03:02:25.966Z,19.16
2018-09-08T03:03:06.443Z,18.99
2018-09-08T03:03:46.966Z,19.06
2018-09-08T03:04:27.383Z,19.16
2018-09-08T03:05:07.893Z,19.11
2018-09-08T03:05:48.404Z,19.06
2018-09-08T03:06:28.839Z,19.07
2018-09-08T03:07:09.403Z,19.11
2018-09-08T03:07:49.939Z,19.11
2018-09-08T03:08:30.436Z,19.16
2018-09-08T03:09:10.984Z,19.16
2018-09-08T03:09:51.430Z,19.18
2018-09-08T03:10:31.932Z,19
2018-09-08T03:11:12.438Z,19.02
2018-09-08T03:11:52.926Z,19.08
2018-09-08T03:12:33.435Z,19.11
2018-09-08T03:13:13.988Z,19.04
2018-09-08T03:13:54.465Z,19
2018-09-08T03:14:34.957Z,19.07
2018-09-08T03:15:15.455Z,19.1
2018-09-08T03:15:55.981Z,19
2018-09-08T03:16:36.426Z,19.06
2018-09-08T03:17:16.985Z,19.04
2018-09-08T03:17:57.476Z,19.02
2018-09-08T03:18:37.977Z,18.99
2018-09-08T03:19:18.515Z,19.07
2018-09-08T03:19:58.989Z,19
2018-09-08T03:20:39.498Z,19.02
2018-09-08T03:21:19.998Z,18.99
2018-09-08T03:22:00.536Z,19.08
2018-09-08T03:22:41.220Z,19.02
2018-09-08T03:23:21.761Z,19.07
2018-09-08T03:24:02.238Z,19.07
2018-09-08T03:24:42.732Z,19
2018-09-08T03:25:23.204Z,18.94
2018-09-08T03:26:03.761Z,19
2018-09-08T03:26:44.188Z,18.85
2018-09-08T03:27:24.644Z,18.95
2018-09-08T03:28:05.102Z,18.84
2018-09-08T03:28:45.611Z,18.82
2018-09-08T03:29:26.115Z,18.87
2018-09-08T03:30:06.620Z,18.9
2018-09-08T03:30:47.112Z,18.95
2018-09-08T03:31:27.640Z,18.94
2018-09-08T03:32:08.130Z,18.95
2018-09-08T03:32:48.636Z,18.82
2018-09-08T03:33:29.097Z,18.9
2018-09-08T03:34:09.566Z,18.95
2018-09-08T03:34:50.084Z,18.98
2018-09-08T03:35:30.576Z,18.94
2018-09-08T03:36:11.100Z,18.87
2018-09-08T03:36:51.586Z,18.91
2018-09-08T03:37:32.097Z,18.88
2018-09-08T03:38:12.611Z,18.94
2018-09-08T03:38:53.075Z,18.8
2018-09-08T03:39:33.582Z,18.8
2018-09-08T03:40:14.050Z,18.82
2018-09-08T03:40:54.516Z,18.88
2018-09-08T03:41:34.992Z,18.98
2018-09-08T03:42:15.465Z,18.95
2018-09-08T03:42:55.975Z,18.98
2018-09-08T03:43:36.495Z,18.94
2018-09-08T03:44:16.992Z,18.92
2018-09-08T03:44:57.509Z,18.92
2018-09-08T03:45:37.994Z,18.99
2018-09-08T03:46:18.466Z,18.98
2018-09-08T03:46:58.960Z,18.99
2018-09-08T03:47:39.493Z,18.88
2018-09-08T03:48:19.995Z,19
2018-09-08T03:49:00.539Z,18.94
2018-09-08T03:49:41.029Z,18.82
2018-09-08T03:50:21.494Z,18.88
2018-09-08T03:51:01.987Z,18.8
2018-09-08T03:51:42.470Z,18.8
2018-09-08T03:52:22.991Z,18.76
2018-09-08T03:53:03.526Z,18.87
2018-09-08T03:53:43.984Z,18.7
2018-09-08T03:54:24.471Z,18.76
2018-09-08T03:55:04.954Z,18.7
2018-09-08T03:55:45.435Z,18.76
2018-09-08T03:56:25.933Z,18.76
2018-09-08T03:57:06.411Z,18.75
2018-09-08T03:57:46.953Z,18.65
2018-09-08T03:58:27.406Z,18.73
2018-09-08T03:59:08.024Z,18.75
2018-09-08T03:59:48.371Z,18.81
2018-09-08T04:00:28.879Z,18.76
2018-09-08T04:01:09.382Z,18.82
2018-09-08T04:01:49.894Z,18.81
2018-09-08T04:02:30.348Z,18.72
2018-09-08T04:03:10.916Z,18.84
2018-09-08T04:03:51.441Z,18.88
2018-09-08T04:04:31.925Z,18.82
2018-09-08T04:05:12.437Z,18.73
2018-09-08T04:05:52.884Z,18.7
2018-09-08T04:06:33.385Z,18.78
2018-09-08T04:07:13.922Z,18.72
2018-09-08T04:07:54.341Z,18.73
2018-09-08T04:08:34.881Z,18.73
2018-09-08T04:09:15.401Z,18.7
2018-09-08T04:09:55.858Z,18.65
2018-09-08T04:10:36.350Z,18.63
2018-09-08T04:11:16.925Z,18.8
2018-09-08T04:11:57.312Z,18.78
2018-09-08T04:12:37.769Z,18.78
2018-09-08T04:13:18.313Z,18.82
2018-09-08T04:13:58.757Z,18.81
2018-09-08T04:14:39.261Z,18.9
2018-09-08T04:15:19.716Z,18.76
2018-09-08T04:16:00.238Z,18.69
2018-09-08T04:16:40.671Z,18.8
2018-09-08T04:17:21.194Z,18.84
2018-09-08T04:18:01.677Z,18.76
2018-09-08T04:18:42.170Z,18.73
2018-09-08T04:19:22.684Z,18.73
2018-09-08T04:20:03.220Z,18.73
2018-09-08T04:20:43.696Z,18.7
2018-09-08T04:21:24.180Z,18.75
2018-09-08T04:22:04.647Z,18.7
2018-09-08T04:22:45.120Z,18.66
2018-09-08T04:23:25.607Z,18.7
2018-09-08T04:24:06.190Z,18.58
2018-09-08T04:24:46.612Z,18.62
2018-09-08T04:25:27.166Z,18.63
2018-09-08T04:26:07.666Z,18.73
2018-09-08T04:26:48.118Z,18.8
2018-09-08T04:27:28.656Z,18.76
2018-09-08T04:28:09.104Z,18.76
2018-09-08T04:28:49.571Z,18.72
2018-09-08T04:29:30.107Z,18.69
2018-09-08T04:30:10.652Z,18.62
2018-09-08T04:30:51.166Z,18.52
2018-09-08T04:31:31.641Z,18.62
2018-09-08T04:32:12.089Z,18.54
2018-09-08T04:32:52.590Z,18.66
2018-09-08T04:33:33.097Z,18.58
2018-09-08T04:34:14.242Z,18.62
2018-09-08T04:34:54.056Z,18.63
2018-09-08T04:35:34.551Z,18.58
2018-09-08T04:36:14.987Z,18.62
2018-09-08T04:36:55.515Z,18.67
2018-09-08T04:37:36.054Z,18.8
2018-09-08T04:38:16.478Z,18.72
2018-09-08T04:38:56.990Z,18.76
2018-09-08T04:39:37.478Z,18.75
2018-09-08T04:40:17.937Z,18.72
2018-09-08T04:40:58.489Z,18.75
2018-09-08T04:41:38.925Z,18.62
2018-09-08T04:42:19.407Z,18.63
2018-09-08T04:42:59.914Z,18.73
2018-09-08T04:43:40.345Z,18.63
2018-09-08T04:44:20.897Z,18.63
2018-09-08T04:45:01.368Z,18.67
2018-09-08T04:45:41.879Z,18.62
2018-09-08T04:46:22.376Z,18.57
2018-09-08T04:47:02.847Z,18.55
2018-09-08T04:47:43.332Z,18.72
2018-09-08T04:48:23.804Z,18.63
2018-09-08T04:49:04.367Z,18.65
2018-09-08T04:49:44.789Z,18.62
2018-09-08T04:50:25.233Z,18.57
2018-09-08T04:51:05.746Z,18.66
2018-09-08T04:51:46.264Z,18.7
2018-09-08T04:52:27.011Z,18.75
2018-09-08T04:53:07.537Z,18.7
2018-09-08T04:53:48.046Z,18.65
2018-09-08T04:54:28.541Z,18.58
2018-09-08T04:55:09.033Z,18.58
2018-09-08T04:55:49.537Z,18.63
2018-09-08T04:56:30.024Z,18.58
2018-09-08T04:57:10.493Z,18.55
2018-09-08T04:57:50.984Z,18.62
2018-09-08T04:58:31.479Z,18.62
2018-09-08T04:59:11.995Z,18.75
2018-09-08T04:59:53.350Z,18.73
2018-09-08T05:00:33.849Z,18.75
2018-09-08T05:01:14.367Z,18.65
2018-09-08T05:01:54.883Z,18.65
2018-09-08T05:02:35.423Z,18.69
2018-09-08T05:03:15.926Z,18.62
2018-09-08T05:03:56.412Z,18.69
2018-09-08T05:04:36.953Z,18.76
2018-09-08T05:05:17.449Z,18.73
2018-09-08T05:05:57.929Z,18.73
2018-09-08T05:06:38.411Z,18.65
2018-09-08T05:07:18.891Z,18.62
2018-09-08T05:07:59.411Z,18.58
2018-09-08T05:08:39.918Z,18.62
2018-09-08T05:09:20.399Z,18.63
2018-09-08T05:10:00.877Z,18.58
2018-09-08T05:10:41.365Z,18.52
2018-09-08T05:11:21.836Z,18.58
2018-09-08T05:12:02.310Z,18.57
2018-09-08T05:12:42.791Z,18.55
2018-09-08T05:13:23.298Z,18.57
2018-09-08T05:14:03.792Z,18.62
2018-09-08T05:14:44.258Z,18.57
2018-09-08T05:15:24.776Z,18.52
2018-09-08T05:16:05.282Z,18.58
2018-09-08T05:16:45.755Z,18.58
2018-09-08T05:17:26.259Z,18.65
2018-09-08T05:18:06.752Z,18.67
2018-09-08T05:18:47.282Z,18.8
2018-09-08T05:19:27.770Z,18.75
2018-09-08T05:20:08.240Z,18.72
2018-09-08T05:20:48.740Z,18.73
2018-09-08T05:21:29.231Z,18.78
2018-09-08T05:22:09.725Z,18.73
2018-09-08T05:22:50.197Z,18.62
2018-09-08T05:23:30.693Z,18.63
2018-09-08T05:24:11.136Z,18.75
2018-09-08T05:24:51.592Z,18.58
2018-09-08T05:25:32.083Z,18.63
2018-09-08T05:26:12.572Z,18.67
2018-09-08T05:26:53.035Z,18.67
2018-09-08T05:27:33.528Z,18.62
2018-09-08T05:28:14.025Z,18.7
2018-09-08T05:28:54.491Z,18.7
2018-09-08T05:29:34.988Z,18.78
2018-09-08T05:30:15.470Z,18.78
2018-09-08T05:30:55.954Z,18.75
2018-09-08T05:31:36.492Z,18.76
2018-09-08T05:32:16.968Z,18.58
2018-09-08T05:32:57.443Z,18.52
2018-09-08T05:33:37.918Z,18.54
2018-09-08T05:34:18.452Z,18.6
2018-09-08T05:34:58.979Z,18.69
2018-09-08T05:35:39.415Z,18.75
2018-09-08T05:36:19.970Z,18.73
2018-09-08T05:37:00.455Z,18.52
2018-09-08T05:37:40.896Z,18.6
2018-09-08T05:38:21.392Z,18.58
2018-09-08T05:39:01.860Z,18.52
2018-09-08T05:39:42.426Z,18.66
2018-09-08T05:40:22.903Z,18.65
2018-09-08T05:41:03.430Z,18.63
2018-09-08T05:41:43.918Z,18.67
2018-09-08T05:42:24.415Z,18.55
2018-09-08T05:43:04.977Z,18.69
2018-09-08T05:43:45.470Z,18.73
2018-09-08T05:44:26.010Z,18.7
2018-09-08T05:45:06.503Z,18.76
2018-09-08T05:45:47.001Z,18.8
2018-09-08T05:46:27.720Z,18.7
2018-09-08T05:47:08.250Z,18.7
2018-09-08T05:47:48.880Z,18.85
2018-09-08T05:48:29.564Z,18.9
2018-09-08T05:49:10.088Z,18.7
2018-09-08T05:49:50.590Z,18.84
2018-09-08T05:50:31.103Z,18.8
2018-09-08T05:51:11.611Z,18.87
2018-09-08T05:51:52.073Z,18.58
2018-09-08T05:52:32.665Z,18.72
2018-09-08T05:53:13.173Z,18.62
2018-09-08T05:53:53.673Z,18.66
2018-09-08T05:54:34.176Z,18.76
2018-09-08T05:55:14.631Z,18.75
2018-09-08T05:55:55.135Z,18.78
2018-09-08T05:56:35.629Z,18.85
2018-09-08T05:57:16.203Z,18.95
2018-09-08T05:57:56.690Z,18.94
2018-09-08T05:58:37.189Z,18.95
2018-09-08T05:59:17.720Z,18.95
2018-09-08T05:59:58.314Z,18.82
2018-09-08T06:00:38.716Z,18.8
2018-09-08T06:01:19.234Z,18.85
2018-09-08T06:01:59.764Z,18.94
2018-09-08T06:02:40.226Z,18.95
2018-09-08T06:04:33.322Z,19
2018-09-08T06:05:13.778Z,18.82
2018-09-08T06:05:54.241Z,18.82
2018-09-08T06:06:34.728Z,18.63
2018-09-08T06:07:15.261Z,18.54
2018-09-08T06:07:55.761Z,18.41
2018-09-08T06:08:36.245Z,18.36
2018-09-08T06:09:16.759Z,18.44
2018-09-08T06:09:57.287Z,18.44
2018-09-08T06:10:37.720Z,18.51
2018-09-08T06:11:18.245Z,18.57
2018-09-08T06:11:58.786Z,18.65
2018-09-08T06:12:39.279Z,18.52
2018-09-08T06:13:20.578Z,18.6
2018-09-08T06:14:00.679Z,18.67
2018-09-08T06:14:41.928Z,18.67
2018-09-08T06:15:22.392Z,18.78
2018-09-08T06:16:02.889Z,18.88
2018-09-08T06:16:43.398Z,18.99
2018-09-08T06:17:23.909Z,18.95
2018-09-08T06:18:04.347Z,18.98
2018-09-08T06:18:44.883Z,18.98
2018-09-08T06:19:25.442Z,19
2018-09-08T06:20:05.901Z,18.99
2018-09-08T06:20:46.432Z,19
2018-09-08T06:21:27.022Z,19.04
2018-09-08T06:22:07.546Z,18.99
2018-09-08T06:22:48.816Z,19.04
2018-09-08T06:23:29.297Z,18.81
2018-09-08T06:24:09.808Z,18.7
2018-09-08T06:24:50.320Z,18.76
2018-09-08T06:25:31.041Z,18.8
2018-09-08T06:26:11.568Z,18.73
2018-09-08T06:26:52.029Z,18.8
2018-09-08T06:27:32.572Z,18.87
2018-09-08T06:29:25.650Z,19.02
2018-09-08T06:30:06.145Z,19.02
2018-09-08T06:30:46.660Z,19.11
2018-09-08T06:31:27.166Z,19.18
2018-09-08T06:32:07.660Z,19.22
2018-09-08T06:32:48.161Z,19.07
2018-09-08T06:33:28.699Z,19.11
2018-09-08T06:34:09.168Z,19.19
2018-09-08T06:34:49.642Z,19.14
2018-09-08T06:35:30.185Z,19.23
2018-09-08T06:36:10.658Z,19.14
2018-09-08T06:36:51.159Z,19.16
2018-09-08T06:37:31.641Z,19.25
2018-09-08T06:38:12.147Z,19.29
2018-09-08T06:38:52.680Z,19.22
2018-09-08T06:39:33.206Z,19.25
2018-09-08T06:40:13.688Z,19.16
2018-09-08T06:40:54.159Z,19.19
2018-09-08T06:41:34.628Z,19.21
2018-09-08T06:42:15.163Z,19.21
2018-09-08T06:42:55.658Z,19.19
2018-09-08T06:43:36.195Z,19.23
2018-09-08T06:44:16.795Z,19.28
2018-09-08T06:44:57.300Z,19.33
2018-09-08T06:45:37.776Z,19.33
2018-09-08T06:46:18.293Z,19.41
2018-09-08T06:46:58.782Z,19.47
2018-09-08T06:47:39.292Z,19.46
2018-09-08T06:48:19.769Z,19.25
2018-09-08T06:49:00.455Z,19.22
2018-09-08T06:49:40.933Z,19.06
2018-09-08T06:50:21.457Z,19.16
2018-09-08T06:51:02.051Z,19.16
2018-09-08T06:51:42.566Z,19.25
2018-09-08T06:52:23.053Z,19.26
2018-09-08T06:53:03.585Z,19.25
2018-09-08T06:53:44.058Z,19.31
2018-09-08T06:54:24.647Z,19.06
2018-09-08T06:55:05.103Z,18.95
2018-09-08T06:55:45.596Z,18.95
2018-09-08T06:56:26.240Z,18.85
2018-09-08T06:57:06.943Z,18.67
2018-09-08T06:57:47.599Z,18.76
2018-09-08T06:58:27.938Z,18.8
2018-09-08T06:59:08.437Z,18.92
2018-09-08T06:59:48.989Z,19.04
2018-09-08T07:00:29.465Z,18.88
2018-09-08T07:01:10.034Z,18.98
2018-09-08T07:01:50.751Z,19.06
2018-09-08T07:02:31.128Z,18.98
2018-09-08T07:03:11.660Z,18.91
2018-09-08T07:03:52.234Z,19
2018-09-08T07:04:32.639Z,19.07
2018-09-08T07:05:13.152Z,19.08
2018-09-08T07:05:53.737Z,19.08
2018-09-08T07:06:34.268Z,19.21
2018-09-08T07:07:14.789Z,19.13
2018-09-08T07:07:55.947Z,19.21
2018-09-08T07:08:36.382Z,19.5
2018-09-08T07:10:29.553Z,19.74
2018-09-08T07:11:10.024Z,19.84
2018-09-08T07:11:50.622Z,19.84
2018-09-08T07:12:31.096Z,19.86
2018-09-08T07:13:11.595Z,19.98
2018-09-08T07:13:52.147Z,20.01
2018-09-08T07:14:32.710Z,20.13
2018-09-08T07:15:13.275Z,20.26
2018-09-08T07:15:53.833Z,20.33
2018-09-08T07:16:34.307Z,20.13
2018-09-08T07:17:14.814Z,20.05
2018-09-08T07:17:55.301Z,20.17
2018-09-08T07:18:35.805Z,20.11
2018-09-08T07:19:16.292Z,20.13
2018-09-08T07:19:56.771Z,20.23
2018-09-08T07:20:37.288Z,20.36
2018-09-08T07:21:17.789Z,20.32
2018-09-08T07:21:58.364Z,20.42
2018-09-08T07:24:11.567Z,20.29
2018-09-08T07:24:52.109Z,20.33
2018-09-08T07:25:32.603Z,20.36
2018-09-08T07:26:13.168Z,20.29
2018-09-08T07:26:53.705Z,20.28
2018-09-08T07:27:34.200Z,20.38
2018-09-08T07:28:14.704Z,20.42
2018-09-08T07:28:55.231Z,20.38
2018-09-08T07:29:35.704Z,20.42
2018-09-08T07:30:16.180Z,20.43
2018-09-08T07:30:56.730Z,20.55
2018-09-08T07:31:37.180Z,20.64
2018-09-08T07:32:17.658Z,20.73
2018-09-08T07:32:58.274Z,20.73
2018-09-08T07:33:38.761Z,20.77
2018-09-08T07:34:19.275Z,20.87
2018-09-08T07:35:01.546Z,21.01
2018-09-08T07:35:41.073Z,20.95
2018-09-08T07:36:21.524Z,20.98
2018-09-08T07:37:02.043Z,21.03
2018-09-08T07:37:42.576Z,21.03
2018-09-08T07:38:23.091Z,20.98
2018-09-08T07:39:04.010Z,21.04
2018-09-08T07:39:44.465Z,20.97
2018-09-08T07:40:24.988Z,20.87
2018-09-08T07:41:05.489Z,20.69
2018-09-08T07:41:46.036Z,20.64
2018-09-08T07:42:26.517Z,20.43
2018-09-08T07:43:07.019Z,20.39
2018-09-08T07:43:47.542Z,20.26
2018-09-08T07:44:28.144Z,20.17
2018-09-08T07:45:08.590Z,20.29
2018-09-08T07:45:49.097Z,20.38
2018-09-08T07:46:29.592Z,20.28
2018-09-08T07:47:10.095Z,20.21
2018-09-08T07:47:50.636Z,20.16
2018-09-08T07:48:31.207Z,20.28
2018-09-08T07:49:11.673Z,20.24
2018-09-08T07:49:52.189Z,20.23
2018-09-08T07:50:32.694Z,20.26
2018-09-08T07:51:13.181Z,20.26
2018-09-08T07:51:53.684Z,20.17
2018-09-08T07:52:34.137Z,20.16
2018-09-08T07:53:14.812Z,20.32
2018-09-08T07:53:55.277Z,20.43
2018-09-08T07:54:35.829Z,20.42
2018-09-08T07:55:16.357Z,20.42
2018-09-08T07:55:57.132Z,20.51
2018-09-08T07:56:37.743Z,20.59
2018-09-08T07:57:18.246Z,20.64
2018-09-08T07:57:59.212Z,20.59
2018-09-08T07:58:39.843Z,20.47
2018-09-08T07:59:20.435Z,20.51
2018-09-08T08:00:00.872Z,20.47
2018-09-08T08:00:41.402Z,20.43
2018-09-08T08:01:22.082Z,20.42
2018-09-08T08:02:02.642Z,20.48
2018-09-08T08:02:43.084Z,20.61
2018-09-08T08:03:23.757Z,20.64
2018-09-08T08:05:37.358Z,20.52
2018-09-08T08:06:17.956Z,20.47
2018-09-08T08:06:58.480Z,20.48
2018-09-08T08:07:38.969Z,20.58
2018-09-08T08:08:19.461Z,20.58
2018-09-08T08:09:00.036Z,20.57
2018-09-08T08:09:40.521Z,20.76
2018-09-08T08:10:21.142Z,20.55
2018-09-08T08:11:01.525Z,20.55
2018-09-08T08:11:42.030Z,20.61
2018-09-08T08:12:22.687Z,20.73
2018-09-08T08:13:03.305Z,20.74
2018-09-08T08:13:44.467Z,20.77
2018-09-08T08:14:25.089Z,20.84
2018-09-08T08:15:05.578Z,20.8
2018-09-08T08:15:46.372Z,20.62
2018-09-08T08:16:26.912Z,20.58
2018-09-08T08:17:07.399Z,20.59
2018-09-08T08:17:47.885Z,20.57
2018-09-08T08:18:28.463Z,20.59
2018-09-08T08:19:09.355Z,20.47
2018-09-08T08:19:49.819Z,20.43
2018-09-08T08:20:30.374Z,20.35
2018-09-08T08:21:10.976Z,20.47
2018-09-08T08:21:51.637Z,20.42
2018-09-08T08:22:32.334Z,20.42
2018-09-08T08:23:13.121Z,20.43
2018-09-08T08:23:53.611Z,20.51
2018-09-08T08:24:34.076Z,20.57
2018-09-08T08:25:14.612Z,20.69
2018-09-08T08:25:55.833Z,20.79
2018-09-08T08:26:36.136Z,20.72
2018-09-08T08:27:16.745Z,20.76
2018-09-08T08:27:57.321Z,20.7
2018-09-08T08:28:37.823Z,20.85
2018-09-08T08:29:18.688Z,20.88
2018-09-08T08:29:59.579Z,20.92
2018-09-08T08:30:40.045Z,20.94
2018-09-08T08:31:22.414Z,20.89
2018-09-08T08:32:02.164Z,20.95
2018-09-08T08:32:44.507Z,21.06
2018-09-08T08:33:25.021Z,21.01
2018-09-08T08:34:05.586Z,21.13
2018-09-08T08:34:46.625Z,21.17
2018-09-08T08:35:27.166Z,21.16
2018-09-08T08:36:08.452Z,21.16
2018-09-08T08:36:48.938Z,21.07
2018-09-08T08:37:29.391Z,21.17
2018-09-08T08:38:09.905Z,21.24
2018-09-08T08:38:50.695Z,21.19
2018-09-08T08:39:31.284Z,21.04
2018-09-08T08:40:11.647Z,21.13
2018-09-08T08:40:52.400Z,21.13
2018-09-08T08:41:32.857Z,21.01
2018-09-08T08:42:13.351Z,21.13
2018-09-08T08:42:53.892Z,21.16
2018-09-08T08:43:34.758Z,21.16
2018-09-08T08:44:15.140Z,21.25
2018-09-08T08:44:55.745Z,21.16
2018-09-08T08:45:36.922Z,21.22
2018-09-08T08:46:17.662Z,21.35
2018-09-08T08:46:58.235Z,21.31
2018-09-08T08:47:38.681Z,21.31
2018-09-08T08:48:19.253Z,21.4
2018-09-08T08:48:59.715Z,21.32
2018-09-08T08:49:40.191Z,21.34
2018-09-08T08:50:20.718Z,21.35
2018-09-08T08:51:01.156Z,21.4
2018-09-08T08:51:41.756Z,21.49
2018-09-08T08:52:22.275Z,21.25
2018-09-08T08:53:02.680Z,21.4
2018-09-08T08:53:43.189Z,21.37
2018-09-08T08:54:23.673Z,21.37
2018-09-08T08:55:04.222Z,21.35
2018-09-08T08:55:44.704Z,21.35
2018-09-08T08:56:25.235Z,21.43
2018-09-08T08:57:05.730Z,21.49